createdAt,value
2019-05-18T00:01:07.207Z,15.23
2019-05-18T00:03:37.914Z,15.12
2019-05-18T00:06:08.752Z,15.09
2019-05-18T00:08:39.522Z,15.11
2019-05-18T00:11:09.996Z,15.11
2019-05-18T00:13:40.597Z,15.14
2019-05-18T00:16:11.215Z,15.08
2019-05-18T00:18:41.892Z,15.03
2019-05-18T00:21:12.984Z,14.99
2019-05-18T00:23:43.784Z,14.89
2019-05-18T00:26:14.657Z,14.85
2019-05-18T00:28:45.463Z,14.84
2019-05-18T00:31:16.389Z,14.79
2019-05-18T00:33:47.295Z,14.87
2019-05-18T00:36:19.099Z,14.85
2019-05-18T00:38:50.111Z,14.81
2019-05-18T00:41:20.834Z,14.75
2019-05-18T00:43:51.625Z,14.70
2019-05-18T00:46:22.578Z,14.62
2019-05-18T00:48:53.408Z,14.52
2019-05-18T00:51:24.177Z,14.54
2019-05-18T00:53:55.013Z,14.55
2019-05-18T00:56:25.967Z,14.57
2019-05-18T00:58:56.689Z,14.54
2019-05-18T01:01:27.365Z,14.60
2019-05-18T01:03:58.413Z,14.63
2019-05-18T01:06:29.228Z,14.69
2019-05-18T01:09:00.075Z,14.67
2019-05-18T01:11:30.774Z,14.65
2019-05-18T01:14:01.692Z,14.68
2019-05-18T01:16:32.647Z,14.66
2019-05-18T01:19:03.494Z,14.64
2019-05-18T01:21:34.145Z,14.70
2019-05-18T01:24:04.844Z,14.59
2019-05-18T01:26:35.317Z,14.64
2019-05-18T01:29:06.785Z,14.52
2019-05-18T01:31:37.388Z,14.56
2019-05-18T01:34:07.894Z,14.54
2019-05-18T01:36:38.429Z,14.60
2019-05-18T01:39:09.231Z,14.59
2019-05-18T01:41:39.831Z,14.47
2019-05-18T01:44:10.812Z,14.45
2019-05-18T01:46:41.587Z,14.39
2019-05-18T01:49:13.281Z,14.26
2019-05-18T01:51:43.950Z,14.17
2019-05-18T01:54:14.811Z,14.15
2019-05-18T01:56:45.628Z,14.17
2019-05-18T01:59:16.492Z,14.23
2019-05-18T02:01:47.257Z,14.19
2019-05-18T02:04:18.068Z,14.18
2019-05-18T02:06:48.991Z,14.14
2019-05-18T02:09:19.856Z,14.22
2019-05-18T02:11:50.673Z,14.24
2019-05-18T02:14:21.648Z,14.22
2019-05-18T02:16:52.336Z,14.28
2019-05-18T02:19:24.830Z,14.30
2019-05-18T02:21:55.631Z,14.34
2019-05-18T02:24:26.379Z,14.33
2019-05-18T02:26:56.989Z,14.32
2019-05-18T02:29:27.780Z,14.22
2019-05-18T02:31:58.548Z,14.12
2019-05-18T02:34:29.331Z,14.12
2019-05-18T02:37:00.087Z,14.16
2019-05-18T02:39:30.798Z,13.89
2019-05-18T02:42:01.845Z,13.99
2019-05-18T02:44:32.495Z,14.12
2019-05-18T02:47:03.233Z,14.09
2019-05-18T02:49:34.133Z,14.17
2019-05-18T02:52:04.933Z,14.20
2019-05-18T02:54:35.694Z,14.27
2019-05-18T02:57:06.305Z,14.28
2019-05-18T02:59:37.077Z,14.28
2019-05-18T03:02:07.549Z,14.31
2019-05-18T03:04:38.177Z,14.29
2019-05-18T03:07:08.660Z,14.33
2019-05-18T03:09:39.166Z,14.33
2019-05-18T03:12:09.665Z,14.20
2019-05-18T03:14:40.138Z,14.18
2019-05-18T03:17:10.781Z,14.14
2019-05-18T03:19:41.265Z,14.11
2019-05-18T03:22:11.757Z,14.00
2019-05-18T03:24:42.305Z,13.91
2019-05-18T03:27:12.821Z,14.01
2019-05-18T03:29:43.443Z,14.13
2019-05-18T03:32:13.965Z,14.12
2019-05-18T03:34:44.464Z,14.13
2019-05-18T03:37:14.950Z,14.08
2019-05-18T03:39:45.586Z,14.03
2019-05-18T03:42:16.141Z,14.02
2019-05-18T03:44:46.641Z,13.93
2019-05-18T03:47:17.392Z,13.83
2019-05-18T03:49:48.285Z,13.74
2019-05-18T03:52:18.963Z,13.63
2019-05-18T03:54:49.694Z,13.65
2019-05-18T03:57:20.467Z,13.69
2019-05-18T03:59:51.242Z,13.66
2019-05-18T04:02:22.087Z,13.61
2019-05-18T04:04:52.746Z,13.55
2019-05-18T04:07:23.642Z,13.46
2019-05-18T04:09:54.440Z,13.51
2019-05-18T04:12:25.300Z,13.46
2019-05-18T04:14:56.388Z,13.47
2019-05-18T04:17:27.228Z,13.49
2019-05-18T04:19:57.997Z,13.60
2019-05-18T04:22:28.794Z,13.69
2019-05-18T04:24:59.610Z,13.83
2019-05-18T04:27:30.294Z,13.90
2019-05-18T04:30:01.169Z,13.91
2019-05-18T04:32:31.969Z,13.92
2019-05-18T04:35:03.166Z,13.99
2019-05-18T04:37:33.909Z,14.09
2019-05-18T04:40:06.292Z,14.20
2019-05-18T04:42:37.130Z,14.29
2019-05-18T04:45:09.482Z,14.34
2019-05-18T04:47:40.235Z,14.32
2019-05-18T04:50:11.437Z,14.27
2019-05-18T04:52:42.294Z,14.30
2019-05-18T04:55:13.241Z,14.38
2019-05-18T04:57:43.971Z,14.42
2019-05-18T05:00:15.226Z,14.42
2019-05-18T05:02:46.294Z,14.44
2019-05-18T05:05:16.947Z,14.41
2019-05-18T05:07:47.843Z,14.44
2019-05-18T05:10:18.818Z,14.50
2019-05-18T05:12:49.858Z,14.57
2019-05-18T05:15:20.648Z,14.57
2019-05-18T05:17:51.444Z,14.58
2019-05-18T05:20:23.254Z,14.65
2019-05-18T05:22:53.899Z,14.64
2019-05-18T05:25:24.376Z,14.69
2019-05-18T05:27:54.881Z,14.75
2019-05-18T05:30:25.396Z,14.87
2019-05-18T05:32:56.017Z,14.89
2019-05-18T05:35:26.521Z,14.87
2019-05-18T05:37:57.156Z,14.96
2019-05-18T05:40:27.776Z,14.91
2019-05-18T05:42:58.282Z,14.90
2019-05-18T05:45:28.787Z,14.81
2019-05-18T05:47:59.326Z,14.75
2019-05-18T05:50:36.047Z,14.91
2019-05-18T05:53:02.117Z,15.09
2019-05-18T05:55:32.980Z,15.11
2019-05-18T05:58:04.905Z,15.23
2019-05-18T06:00:35.773Z,15.30
2019-05-18T06:03:06.551Z,15.28
2019-05-18T06:05:37.228Z,15.22
2019-05-18T06:08:07.850Z,15.08
2019-05-18T06:10:38.586Z,15.27
2019-05-18T06:13:09.333Z,15.33
2019-05-18T06:15:40.081Z,15.55
2019-05-18T06:18:10.949Z,15.60
2019-05-18T06:20:51.093Z,15.56
2019-05-18T06:23:14.596Z,15.70
2019-05-18T06:25:45.329Z,15.91
2019-05-18T06:28:16.171Z,16.06
2019-05-18T06:30:46.942Z,16.12
2019-05-18T06:33:17.844Z,15.99
2019-05-18T06:35:48.632Z,16.23
2019-05-18T06:38:19.468Z,16.29
2019-05-18T06:40:50.372Z,16.34
2019-05-18T06:43:21.273Z,16.51
2019-05-18T06:45:51.990Z,16.60
2019-05-18T06:48:22.696Z,16.47
2019-05-18T06:51:06.383Z,16.78
2019-05-18T06:53:26.116Z,16.88
2019-05-18T06:55:57.374Z,16.98
2019-05-18T06:58:28.467Z,16.67
2019-05-18T07:00:59.310Z,16.78
2019-05-18T07:03:30.497Z,17.03
2019-05-18T07:06:01.383Z,16.56
2019-05-18T07:08:32.119Z,16.80
2019-05-18T07:11:02.928Z,16.65
2019-05-18T07:13:33.573Z,16.85
2019-05-18T07:16:04.417Z,16.98
2019-05-18T07:18:35.324Z,17.15
2019-05-18T07:21:06.034Z,17.17
2019-05-18T07:23:36.817Z,17.33
2019-05-18T07:26:08.611Z,17.13
2019-05-18T07:28:39.447Z,16.72
2019-05-18T07:31:10.290Z,17.10
2019-05-18T07:33:41.163Z,17.32
2019-05-18T07:36:11.942Z,17.31
2019-05-18T07:38:42.737Z,17.72
2019-05-18T07:41:13.817Z,17.59
2019-05-18T07:43:44.636Z,17.73
2019-05-18T07:46:15.224Z,18.04
2019-05-18T07:48:45.704Z,18.23
2019-05-18T07:51:16.239Z,18.14
2019-05-18T07:53:46.712Z,18.24
2019-05-18T07:56:17.226Z,18.29
2019-05-18T07:58:47.696Z,17.92
2019-05-18T08:01:18.437Z,17.78
2019-05-18T08:03:49.147Z,18.05
2019-05-18T08:06:19.951Z,18.25
2019-05-18T08:08:50.645Z,18.30
2019-05-18T08:11:21.190Z,18.18
2019-05-18T08:13:51.942Z,18.28
2019-05-18T08:16:22.651Z,18.38
2019-05-18T08:18:53.599Z,18.37
2019-05-18T08:21:24.082Z,18.31
2019-05-18T08:23:55.496Z,18.64
2019-05-18T08:26:25.985Z,18.84
2019-05-18T08:28:56.584Z,18.30
2019-05-18T08:31:27.057Z,18.58
2019-05-18T08:33:57.830Z,18.47
2019-05-18T08:36:28.612Z,18.91
2019-05-18T08:38:59.386Z,18.82
2019-05-18T08:41:31.209Z,19.35
2019-05-18T08:44:02.205Z,18.81
2019-05-18T08:46:32.879Z,18.64
2019-05-18T08:49:03.758Z,18.83
2019-05-18T08:51:34.523Z,18.83
2019-05-18T08:54:05.435Z,19.27
2019-05-18T08:56:36.204Z,19.08
2019-05-18T08:59:07.062Z,19.45
2019-05-18T09:01:37.668Z,19.25
2019-05-18T09:04:08.754Z,19.15
2019-05-18T09:06:39.573Z,19.19
2019-05-18T09:09:10.243Z,18.60
2019-05-18T09:11:41.176Z,19.08
2019-05-18T09:14:11.981Z,19.03
2019-05-18T09:16:43.193Z,19.31
2019-05-18T09:19:14.016Z,19.18
2019-05-18T09:21:44.906Z,19.29
2019-05-18T09:24:16.982Z,19.05
2019-05-18T09:26:47.772Z,19.39
2019-05-18T09:29:18.711Z,19.69
2019-05-18T09:31:49.574Z,19.90
2019-05-18T09:34:20.453Z,19.77
2019-05-18T09:36:51.392Z,19.63
2019-05-18T09:39:22.200Z,19.38
2019-05-18T09:41:52.931Z,19.67
2019-05-18T09:44:23.692Z,19.60
2019-05-18T09:46:54.605Z,19.24
2019-05-18T09:49:25.394Z,19.84
2019-05-18T09:51:55.861Z,19.90
2019-05-18T09:54:26.400Z,19.79
2019-05-18T09:56:56.879Z,19.98
2019-05-18T09:59:27.340Z,20.31
2019-05-18T10:01:57.944Z,20.09
2019-05-18T10:04:28.814Z,19.76
2019-05-18T10:07:00.718Z,20.19
2019-05-18T10:09:38.887Z,20.07
2019-05-18T10:12:04.091Z,20.09
2019-05-18T10:14:34.889Z,20.16
2019-05-18T10:17:05.784Z,20.18
2019-05-18T10:19:36.488Z,20.08
2019-05-18T10:22:24.953Z,20.31
2019-05-18T10:24:55.787Z,20.33
2019-05-18T10:27:26.641Z,20.97
2019-05-18T10:29:57.377Z,20.62
2019-05-18T10:32:28.274Z,20.61
2019-05-18T10:34:59.145Z,20.72
2019-05-18T10:37:30.150Z,20.36
2019-05-18T10:40:01.015Z,20.76
2019-05-18T10:42:31.997Z,20.61
2019-05-18T10:45:02.916Z,20.88
2019-05-18T10:47:33.674Z,20.99
2019-05-18T10:50:04.693Z,20.99
2019-05-18T10:52:35.551Z,21.13
2019-05-18T10:55:06.832Z,21.37
2019-05-18T10:57:37.734Z,21.67
2019-05-18T11:00:09.567Z,21.48
2019-05-18T11:02:40.880Z,21.73
2019-05-18T11:05:13.348Z,21.58
2019-05-18T11:07:44.464Z,21.42
2019-05-18T11:10:15.821Z,21.61
2019-05-18T11:12:46.700Z,21.85
2019-05-18T11:15:17.928Z,21.47
2019-05-18T11:17:48.768Z,21.61
2019-05-18T11:20:20.172Z,21.67
2019-05-18T11:22:50.972Z,21.73
2019-05-18T11:25:22.096Z,21.74
2019-05-18T11:27:52.980Z,21.54
2019-05-18T11:30:23.892Z,22.08
2019-05-18T11:32:54.930Z,22.00
2019-05-18T11:35:26.213Z,21.68
2019-05-18T11:37:57.067Z,21.68
2019-05-18T11:40:27.730Z,21.71
2019-05-18T11:42:58.311Z,21.75
2019-05-18T11:45:30.611Z,22.03
2019-05-18T11:48:01.780Z,21.75
2019-05-18T11:50:32.330Z,22.11
2019-05-18T11:53:02.951Z,22.17
2019-05-18T11:55:33.500Z,22.38
2019-05-18T11:58:04.464Z,22.55
2019-05-18T12:00:35.523Z,21.67
2019-05-18T12:03:06.505Z,21.69
2019-05-18T12:05:37.392Z,21.45
2019-05-18T12:08:08.372Z,21.83
2019-05-18T12:10:39.261Z,22.43
2019-05-18T12:13:10.145Z,22.68
2019-05-18T12:15:41.202Z,22.90
2019-05-18T12:18:12.137Z,23.04
2019-05-18T12:20:43.127Z,22.48
2019-05-18T12:23:13.909Z,22.78
2019-05-18T12:25:44.733Z,23.18
2019-05-18T12:28:15.947Z,22.72
2019-05-18T12:30:46.724Z,22.73
2019-05-18T12:33:17.703Z,22.94
2019-05-18T12:35:48.407Z,23.34
2019-05-18T12:38:19.271Z,22.72
2019-05-18T12:40:50.158Z,22.42
2019-05-18T12:43:22.049Z,22.47
2019-05-18T12:45:52.953Z,22.36
2019-05-18T12:48:23.840Z,22.57
2019-05-18T12:50:54.878Z,22.31
2019-05-18T12:53:25.690Z,22.82
2019-05-18T12:55:56.619Z,23.34
2019-05-18T12:58:27.591Z,23.58
2019-05-18T13:00:58.434Z,23.47
2019-05-18T13:03:29.216Z,23.20
2019-05-18T13:06:00.231Z,23.65
2019-05-18T13:08:31.119Z,23.32
2019-05-18T13:11:02.105Z,23.21
2019-05-18T13:13:33.222Z,23.59
2019-05-18T13:16:04.139Z,23.43
2019-05-18T13:18:35.059Z,23.55
2019-05-18T13:21:06.040Z,23.45
2019-05-18T13:23:36.903Z,23.46
2019-05-18T13:26:07.784Z,23.45
2019-05-18T13:28:38.649Z,22.79
2019-05-18T13:31:09.356Z,23.14
2019-05-18T13:33:40.119Z,23.41
2019-05-18T13:36:10.724Z,23.45
2019-05-18T13:38:41.343Z,23.03
2019-05-18T13:41:12.096Z,23.15
2019-05-18T13:43:42.655Z,22.63
2019-05-18T13:46:13.251Z,21.87
2019-05-18T13:48:44.018Z,21.80
2019-05-18T13:58:48.294Z,21.40
2019-05-18T14:01:18.819Z,21.77
2019-05-18T14:03:49.286Z,21.16
2019-05-18T14:06:20.048Z,21.28
2019-05-18T14:08:50.756Z,21.67
2019-05-18T14:11:21.617Z,21.41
2019-05-18T14:13:52.443Z,21.41
2019-05-18T14:16:23.401Z,21.59
2019-05-18T14:18:54.193Z,21.39
2019-05-18T14:21:25.064Z,21.02
2019-05-18T14:23:55.736Z,21.30
2019-05-18T14:26:26.473Z,21.29
2019-05-18T14:28:57.040Z,21.62
2019-05-18T14:31:27.842Z,21.42
2019-05-18T14:33:58.593Z,20.99
2019-05-18T14:36:29.462Z,20.50
2019-05-18T14:39:00.178Z,20.73
2019-05-18T14:41:32.711Z,20.76
2019-05-18T14:44:03.487Z,20.71
2019-05-18T14:46:34.255Z,21.16
2019-05-18T14:49:05.113Z,21.52
2019-05-18T14:51:35.912Z,21.44
2019-05-18T14:54:06.789Z,21.83
2019-05-18T14:56:37.433Z,22.04
2019-05-18T14:59:09.144Z,21.27
2019-05-18T15:01:39.816Z,21.78
2019-05-18T15:04:10.807Z,21.48
2019-05-18T15:06:41.690Z,21.77
2019-05-18T15:09:12.496Z,21.58
2019-05-18T15:11:43.292Z,21.89
2019-05-18T15:14:14.125Z,21.69
2019-05-18T15:16:44.922Z,21.87
2019-05-18T15:19:15.809Z,21.95
2019-05-18T15:21:46.324Z,21.55
2019-05-18T15:24:16.807Z,21.56
2019-05-18T15:26:47.346Z,21.67
2019-05-18T15:29:17.818Z,21.73
2019-05-18T15:31:48.580Z,21.45
2019-05-18T15:34:19.398Z,22.09
2019-05-18T15:36:50.229Z,22.16
2019-05-18T15:39:21.092Z,21.30
2019-05-18T15:41:52.008Z,21.68
2019-05-18T15:44:22.805Z,22.35
2019-05-18T15:46:53.473Z,22.52
2019-05-18T15:49:24.515Z,22.45
2019-05-18T15:51:55.378Z,22.47
2019-05-18T15:54:26.325Z,21.66
2019-05-18T15:56:57.116Z,21.11
2019-05-18T15:59:28.006Z,21.68
2019-05-18T16:01:58.856Z,21.92
2019-05-18T16:04:29.810Z,21.37
2019-05-18T16:07:00.633Z,21.76
2019-05-18T16:09:31.410Z,21.87
2019-05-18T16:12:02.338Z,21.59
2019-05-18T16:14:33.180Z,21.21
2019-05-18T16:17:04.116Z,21.40
2019-05-18T16:19:34.975Z,21.52
2019-05-18T16:22:05.760Z,21.59
2019-05-18T16:24:36.457Z,20.77
2019-05-18T16:27:07.225Z,20.67
2019-05-18T16:29:37.916Z,20.33
2019-05-18T16:32:08.788Z,20.25
2019-05-18T16:34:39.559Z,20.90
2019-05-18T16:37:10.517Z,21.20
2019-05-18T16:39:41.408Z,21.35
2019-05-18T16:42:12.331Z,21.35
2019-05-18T16:44:43.013Z,21.70
2019-05-18T16:47:13.843Z,21.41
2019-05-18T16:49:44.577Z,21.20
2019-05-18T16:52:15.382Z,21.01
2019-05-18T16:54:46.179Z,21.29
2019-05-18T16:57:17.012Z,21.41
2019-05-18T16:59:47.687Z,21.39
2019-05-18T17:02:31.218Z,21.23
2019-05-18T17:04:50.741Z,21.13
2019-05-18T17:07:21.221Z,21.13
2019-05-18T17:09:51.788Z,20.70
2019-05-18T17:12:22.397Z,20.83
2019-05-18T17:14:52.872Z,20.70
2019-05-18T17:17:24.019Z,20.26
2019-05-18T17:19:54.518Z,19.63
2019-05-18T17:22:25.256Z,20.18
2019-05-18T17:24:56.504Z,20.02
2019-05-18T17:27:27.299Z,19.98
2019-05-18T17:29:58.283Z,20.28
2019-05-18T17:32:29.017Z,20.09
2019-05-18T17:35:02.354Z,20.09
2019-05-18T17:37:33.285Z,20.15
2019-05-18T17:44:58.207Z,20.03
2019-05-18T17:47:29.646Z,19.97
2019-05-18T17:50:00.463Z,19.96
2019-05-18T17:52:31.248Z,19.99
2019-05-18T17:55:02.116Z,19.81
2019-05-18T17:57:32.957Z,19.20
2019-05-18T18:00:04.257Z,19.43
2019-05-18T18:02:35.958Z,19.71
2019-05-18T18:05:07.405Z,19.46
2019-05-18T18:07:38.323Z,19.35
2019-05-18T18:10:09.787Z,19.43
2019-05-18T18:12:40.553Z,19.20
2019-05-18T18:15:11.641Z,19.48
2019-05-18T18:17:42.534Z,19.47
2019-05-18T18:20:13.558Z,19.51
2019-05-18T18:22:44.220Z,19.26
2019-05-18T18:25:14.997Z,19.34
2019-05-18T18:27:45.973Z,19.01
2019-05-18T18:30:17.471Z,18.86
2019-05-18T18:32:48.118Z,18.82
2019-05-18T18:35:19.022Z,18.72
2019-05-18T18:37:49.895Z,18.63
2019-05-18T18:40:20.724Z,18.49
2019-05-18T18:42:51.593Z,18.54
2019-05-18T18:45:22.177Z,18.23
2019-05-18T18:47:53.872Z,17.96
2019-05-18T18:50:24.420Z,17.77
2019-05-18T18:52:54.937Z,18.12
2019-05-18T18:55:25.443Z,17.82
2019-05-18T18:57:55.909Z,17.68
2019-05-18T19:00:26.437Z,17.83
2019-05-18T19:02:56.926Z,17.76
2019-05-18T19:05:28.928Z,17.60
2019-05-18T19:07:59.859Z,17.37
2019-05-18T19:10:30.626Z,17.11
2019-05-18T19:13:01.325Z,17.41
2019-05-18T19:17:00.415Z,17.46
2019-05-18T19:18:43.419Z,17.27
2019-05-18T19:21:14.192Z,17.36
2019-05-18T19:23:44.985Z,17.56
2019-05-18T19:26:16.813Z,17.10
2019-05-18T19:28:47.673Z,17.03
2019-05-18T19:31:18.537Z,17.08
2019-05-18T19:33:49.264Z,17.00
2019-05-18T19:36:21.545Z,16.95
2019-05-18T19:38:52.280Z,17.13
2019-05-18T19:41:23.071Z,17.04
2019-05-18T19:43:53.929Z,16.76
2019-05-18T19:46:24.753Z,16.89
2019-05-18T19:48:55.488Z,16.80
2019-05-18T19:51:26.377Z,16.75
2019-05-18T19:53:57.165Z,16.52
2019-05-18T19:56:27.859Z,16.71
2019-05-18T19:58:58.632Z,16.44
2019-05-18T20:01:30.356Z,16.25
2019-05-18T20:04:01.125Z,16.51
2019-05-18T20:06:32.196Z,16.51
2019-05-18T20:09:05.224Z,16.34
2019-05-18T20:11:36.941Z,16.47
2019-05-18T20:14:07.697Z,16.66
2019-05-18T20:16:38.568Z,16.67
2019-05-18T20:19:09.480Z,16.67
2019-05-18T20:21:41.898Z,16.70
2019-05-18T20:24:12.672Z,16.70
2019-05-18T20:26:43.507Z,16.67
2019-05-18T20:29:14.345Z,16.44
2019-05-18T20:31:45.199Z,16.47
2019-05-18T20:34:15.913Z,16.65
2019-05-18T20:36:46.810Z,16.66
2019-05-18T20:39:17.529Z,16.64
2019-05-18T20:41:48.140Z,16.67
2019-05-18T20:44:18.714Z,16.61
2019-05-18T20:46:49.307Z,16.68
2019-05-18T20:49:19.779Z,16.65
2019-05-18T20:51:50.670Z,16.66
2019-05-18T20:54:21.285Z,16.54
2019-05-18T20:56:51.864Z,16.51
2019-05-18T20:59:22.481Z,16.62
2019-05-18T21:01:53.561Z,16.61
2019-05-18T21:04:24.309Z,16.62
2019-05-18T21:06:55.354Z,16.54
2019-05-18T21:09:26.195Z,16.54
2019-05-18T21:11:57.012Z,16.47
2019-05-18T21:14:27.790Z,16.45
2019-05-18T21:16:58.662Z,16.38
2019-05-18T21:19:29.483Z,16.31
2019-05-18T21:22:00.424Z,16.26
2019-05-18T21:24:31.141Z,16.19
2019-05-18T21:27:02.644Z,16.31
2019-05-18T21:29:33.412Z,16.29
2019-05-18T21:32:05.142Z,16.21
2019-05-18T21:34:36.080Z,16.22
2019-05-18T21:37:06.964Z,16.29
2019-05-18T21:39:37.719Z,16.28
2019-05-18T21:42:08.598Z,16.27
2019-05-18T21:44:39.381Z,16.17
2019-05-18T21:47:10.086Z,16.11
2019-05-18T21:49:41.006Z,15.96
2019-05-18T21:52:11.740Z,15.67
2019-05-18T21:54:42.596Z,15.48
2019-05-18T21:57:13.520Z,15.34
2019-05-18T21:59:44.199Z,15.37
2019-05-18T22:02:15.178Z,15.44
2019-05-18T22:04:45.919Z,15.52
2019-05-18T22:07:16.818Z,15.43
2019-05-18T22:09:47.548Z,15.44
2019-05-18T22:12:18.375Z,15.37
2019-05-18T22:14:49.155Z,15.31
2019-05-18T22:17:19.991Z,15.26
2019-05-18T22:19:50.865Z,15.20
2019-05-18T22:22:21.353Z,15.13
2019-05-18T22:24:51.876Z,15.09
2019-05-18T22:27:22.372Z,15.08
2019-05-18T22:29:52.990Z,15.08
2019-05-18T22:32:23.463Z,15.13
2019-05-18T22:34:53.996Z,15.04
2019-05-18T22:37:24.507Z,15.09
2019-05-18T22:39:55.043Z,15.02
2019-05-18T22:42:26.964Z,14.98
2019-05-18T22:44:57.760Z,14.96
2019-05-18T22:47:28.637Z,14.99
2019-05-18T22:49:59.423Z,15.04
2019-05-18T22:52:30.316Z,14.99
2019-05-18T22:55:01.094Z,14.93
2019-05-18T22:57:32.071Z,14.90
2019-05-18T23:00:02.939Z,14.95
2019-05-18T23:02:35.451Z,14.98
2019-05-18T23:05:06.463Z,14.92
2019-05-18T23:07:37.354Z,14.85
2019-05-18T23:10:08.366Z,14.91
2019-05-18T23:12:39.145Z,14.93
2019-05-18T23:15:10.610Z,14.83
2019-05-18T23:17:41.367Z,14.74
2019-05-18T23:20:12.619Z,14.63
2019-05-18T23:22:43.441Z,14.52
2019-05-18T23:25:14.319Z,14.61
2019-05-18T23:27:45.282Z,14.66
2019-05-18T23:30:17.581Z,14.57
2019-05-18T23:32:50.490Z,14.52
2019-05-18T23:35:20.968Z,14.49
2019-05-18T23:37:51.667Z,14.47
2019-05-18T23:40:23.017Z,14.45
2019-05-18T23:42:53.714Z,14.51
2019-05-18T23:45:24.508Z,14.49
2019-05-18T23:47:55.320Z,14.52
2019-05-18T23:50:26.142Z,14.42
2019-05-18T23:52:57.305Z,14.41
2019-05-18T23:55:28.028Z,14.37
2019-05-18T23:58:05.093Z,14.33
